createdAt,value
2019-05-22T00:00:29.225Z,26.00
2019-05-22T00:03:02.990Z,21.97
2019-05-22T00:05:33.112Z,25.20
2019-05-22T00:08:04.520Z,25.50
2019-05-22T00:10:34.591Z,23.23
2019-05-22T00:13:04.657Z,28.20
2019-05-22T00:15:38.418Z,23.00
2019-05-22T00:18:07.524Z,28.53
2019-05-22T00:20:37.323Z,23.30
2019-05-22T00:23:14.989Z,17.50
2019-05-22T00:25:45.116Z,24.20
2019-05-22T00:28:15.465Z,24.50
2019-05-22T00:30:46.103Z,27.03
2019-05-22T00:33:15.988Z,27.63
2019-05-22T00:35:45.752Z,25.53
2019-05-22T00:38:15.137Z,25.10
2019-05-22T00:40:45.471Z,23.43
2019-05-22T00:43:17.288Z,18.47
2019-05-22T00:45:49.040Z,23.93
2019-05-22T00:48:20.851Z,22.37
2019-05-22T00:50:52.660Z,21.40
2019-05-22T00:53:28.442Z,26.70
2019-05-22T00:55:59.289Z,26.03
2019-05-22T00:58:29.659Z,21.37
2019-05-22T01:01:04.551Z,36.70
2019-05-22T01:03:34.063Z,21.67
2019-05-22T01:06:04.602Z,23.60
2019-05-22T01:08:36.339Z,30.23
2019-05-22T01:11:07.619Z,21.87
2019-05-22T01:13:37.383Z,31.33
2019-05-22T01:16:07.731Z,33.00
2019-05-22T01:18:38.910Z,28.10
2019-05-22T01:21:07.885Z,22.60
2019-05-22T01:23:36.668Z,34.93
2019-05-22T01:26:05.768Z,32.00
2019-05-22T01:28:37.643Z,40.30
2019-05-22T01:31:10.901Z,33.53
2019-05-22T01:33:47.599Z,28.37
2019-05-22T01:36:20.486Z,33.63
2019-05-22T01:38:49.240Z,33.47
2019-05-22T01:41:37.388Z,22.50
2019-05-22T01:44:06.963Z,35.47
2019-05-22T01:46:39.311Z,21.00
2019-05-22T01:49:12.600Z,27.03
2019-05-22T01:51:42.490Z,24.63
2019-05-22T01:54:11.647Z,31.40
2019-05-22T01:56:42.095Z,40.07
2019-05-22T01:59:13.339Z,26.40
2019-05-22T02:01:42.142Z,26.30
2019-05-22T02:04:14.779Z,27.03
2019-05-22T02:06:43.112Z,36.17
2019-05-22T02:09:28.685Z,40.87
2019-05-22T02:12:08.055Z,35.60
2019-05-22T02:14:41.481Z,57.53
2019-05-22T02:17:12.197Z,53.57
2019-05-22T02:19:41.165Z,36.70
2019-05-22T02:22:11.608Z,30.73
2019-05-22T02:24:42.081Z,31.43
2019-05-22T02:27:11.549Z,37.43
2019-05-22T02:29:40.936Z,39.90
2019-05-22T02:32:11.880Z,50.97
2019-05-22T02:34:41.167Z,45.03
2019-05-22T02:37:10.762Z,42.47
2019-05-22T02:39:41.347Z,47.83
2019-05-22T02:42:13.192Z,38.33
2019-05-22T02:44:42.772Z,50.37
2019-05-22T02:47:19.888Z,31.40
2019-05-22T02:49:45.049Z,34.03
2019-05-22T02:52:15.584Z,38.93
2019-05-22T02:54:45.378Z,26.23
2019-05-22T02:57:14.761Z,32.63
2019-05-22T02:59:43.568Z,33.53
2019-05-22T03:02:14.038Z,29.67
2019-05-22T03:04:58.584Z,34.50
2019-05-22T03:07:27.686Z,29.43
2019-05-22T03:09:57.264Z,30.20
2019-05-22T03:12:28.609Z,29.30
2019-05-22T03:14:58.015Z,32.57
2019-05-22T03:17:30.612Z,35.17
2019-05-22T03:20:01.981Z,31.70
2019-05-22T03:22:34.712Z,30.40
2019-05-22T03:25:07.759Z,27.57
2019-05-22T03:27:43.445Z,26.00
2019-05-22T03:30:18.721Z,24.83
2019-05-22T03:32:49.202Z,28.30
2019-05-22T03:35:20.560Z,29.63
2019-05-22T03:37:50.746Z,31.73
2019-05-22T03:40:20.609Z,25.80
2019-05-22T03:42:50.991Z,31.03
2019-05-22T03:45:22.163Z,25.70
2019-05-22T03:47:53.041Z,27.83
2019-05-22T03:50:23.483Z,31.97
2019-05-22T03:52:55.230Z,32.70
2019-05-22T03:55:24.401Z,28.73
2019-05-22T03:57:53.109Z,29.93
2019-05-22T04:00:22.377Z,30.43
2019-05-22T04:02:54.756Z,31.43
2019-05-22T04:05:25.239Z,26.83
2019-05-22T04:07:55.596Z,32.63
2019-05-22T04:10:25.915Z,26.63
2019-05-22T04:12:55.661Z,27.60
2019-05-22T04:15:25.030Z,27.70
2019-05-22T04:17:54.896Z,33.60
2019-05-22T04:20:23.941Z,24.23
2019-05-22T04:22:57.729Z,20.87
2019-05-22T04:25:26.908Z,21.93
2019-05-22T04:27:56.780Z,22.45
2019-05-22T04:30:26.156Z,27.57
2019-05-22T04:32:55.548Z,26.48
2019-05-22T04:35:24.370Z,26.47
2019-05-22T04:37:53.360Z,22.58
2019-05-22T04:40:25.688Z,18.67
2019-05-22T04:42:56.268Z,19.85
2019-05-22T04:45:26.740Z,19.23
2019-05-22T04:47:58.760Z,20.92
2019-05-22T04:50:29.060Z,20.70
2019-05-22T04:52:59.935Z,17.35
2019-05-22T04:55:29.805Z,18.20
2019-05-22T04:58:01.259Z,17.00
2019-05-22T05:00:31.339Z,18.02
2019-05-22T05:03:00.727Z,18.30
2019-05-22T05:05:37.169Z,21.70
2019-05-22T05:08:06.727Z,17.50
2019-05-22T05:10:35.939Z,13.88
2019-05-22T05:13:05.125Z,15.88
2019-05-22T05:15:36.779Z,17.52
2019-05-22T05:18:04.487Z,15.03
2019-05-22T05:20:33.187Z,14.43
2019-05-22T05:23:01.899Z,12.35
2019-05-22T05:25:31.180Z,17.52
2019-05-22T05:28:01.251Z,18.40
2019-05-22T05:30:30.328Z,11.70
2019-05-22T05:32:59.811Z,15.03
2019-05-22T05:35:29.992Z,14.40
2019-05-22T05:37:58.996Z,18.35
2019-05-22T05:40:38.129Z,21.00
2019-05-22T05:43:08.858Z,18.50
2019-05-22T05:45:39.835Z,13.48
2019-05-22T05:48:14.084Z,16.70
2019-05-22T05:51:04.139Z,17.27
2019-05-22T05:53:37.144Z,16.70
2019-05-22T05:56:14.299Z,12.18
2019-05-22T05:58:43.555Z,13.53
2019-05-22T06:01:25.736Z,17.15
2019-05-22T06:03:55.704Z,16.45
2019-05-22T06:06:31.124Z,12.58
2019-05-22T06:09:00.495Z,16.50
2019-05-22T06:11:42.300Z,12.00
2019-05-22T06:14:19.548Z,14.05
2019-05-22T06:16:58.639Z,12.50
2019-05-22T06:19:28.652Z,13.05
2019-05-22T06:21:58.221Z,15.15
2019-05-22T06:24:33.085Z,12.35
2019-05-22T06:27:11.275Z,15.45
2019-05-22T06:30:01.762Z,15.45
2019-05-22T06:32:57.631Z,14.65
2019-05-22T06:35:31.856Z,13.80
2019-05-22T06:38:03.703Z,13.48
2019-05-22T06:40:32.716Z,16.12
2019-05-22T06:43:20.901Z,16.48
2019-05-22T06:45:49.611Z,14.93
2019-05-22T06:48:18.392Z,10.85
2019-05-22T06:50:49.375Z,15.48
2019-05-22T06:53:17.868Z,10.08
2019-05-22T06:55:46.567Z,11.43
2019-05-22T06:58:15.343Z,11.10
2019-05-22T07:00:44.316Z,14.07
2019-05-22T07:03:13.012Z,9.03
2019-05-22T07:05:42.793Z,16.70
2019-05-22T07:08:13.060Z,13.30
2019-05-22T07:10:43.549Z,9.93
2019-05-22T07:13:14.120Z,11.15
2019-05-22T07:15:44.184Z,12.98
2019-05-22T07:18:15.294Z,10.95
2019-05-22T07:20:44.815Z,12.25
2019-05-22T07:23:15.276Z,11.68
2019-05-22T07:25:46.334Z,10.70
2019-05-22T07:28:18.197Z,12.00
2019-05-22T07:30:48.114Z,10.25
2019-05-22T07:33:18.076Z,8.68
2019-05-22T07:36:07.661Z,8.23
2019-05-22T07:38:19.446Z,9.75
2019-05-22T07:40:50.393Z,11.00
2019-05-22T07:43:20.899Z,15.50
2019-05-22T07:45:50.869Z,9.85
2019-05-22T07:48:21.242Z,12.98
2019-05-22T07:50:50.172Z,9.53
2019-05-22T07:53:19.083Z,7.40
2019-05-22T07:55:49.082Z,6.55
2019-05-22T07:58:18.515Z,10.08
2019-05-22T08:00:50.932Z,11.75
2019-05-22T08:03:20.346Z,8.38
2019-05-22T08:05:53.882Z,10.10
2019-05-22T08:08:24.231Z,11.43
2019-05-22T08:10:54.442Z,10.28
2019-05-22T08:13:23.887Z,19.62
2019-05-22T08:15:52.585Z,14.58
2019-05-22T08:18:21.568Z,11.65
2019-05-22T08:20:50.676Z,8.28
2019-05-22T08:23:19.854Z,11.68
2019-05-22T08:25:48.548Z,12.10
2019-05-22T08:28:19.934Z,14.23
2019-05-22T08:30:49.326Z,9.83
2019-05-22T08:33:20.802Z,8.38
2019-05-22T08:35:50.365Z,13.32
2019-05-22T08:38:21.313Z,13.18
2019-05-22T08:40:52.343Z,10.32
2019-05-22T08:43:22.141Z,11.68
2019-05-22T08:45:50.836Z,18.92
2019-05-22T08:48:20.826Z,13.62
2019-05-22T08:50:50.139Z,14.85
2019-05-22T08:53:19.455Z,10.82
2019-05-22T08:55:48.646Z,12.95
2019-05-22T08:58:17.352Z,7.67
2019-05-22T09:00:47.019Z,11.10
2019-05-22T09:03:16.889Z,10.23
2019-05-22T09:05:45.975Z,10.90
2019-05-22T09:08:14.873Z,15.35
2019-05-22T09:10:44.143Z,7.33
2019-05-22T09:13:13.144Z,10.82
2019-05-22T09:15:42.419Z,14.58
2019-05-22T09:18:12.006Z,12.33
2019-05-22T09:20:49.206Z,16.07
2019-05-22T09:23:11.979Z,13.13
2019-05-22T09:25:41.092Z,15.63
2019-05-22T09:28:10.289Z,14.07
2019-05-22T09:30:38.976Z,10.30
2019-05-22T09:33:08.946Z,13.25
2019-05-22T09:35:38.225Z,12.35
2019-05-22T09:38:07.131Z,11.93
2019-05-22T09:40:35.903Z,16.25
2019-05-22T09:43:05.867Z,21.77
2019-05-22T09:45:36.850Z,16.82
2019-05-22T09:48:06.711Z,16.30
2019-05-22T09:50:35.895Z,14.68
2019-05-22T09:53:06.759Z,16.75
2019-05-22T09:58:14.673Z,19.32
2019-05-22T10:00:43.943Z,13.60
2019-05-22T10:03:12.944Z,16.12
2019-05-22T10:05:41.804Z,16.48
2019-05-22T10:08:10.549Z,11.60
2019-05-22T10:10:39.726Z,12.95
2019-05-22T10:13:08.548Z,14.00
2019-05-22T10:15:37.611Z,16.07
2019-05-22T10:18:06.787Z,13.68
2019-05-22T10:20:35.490Z,18.80
2019-05-22T10:23:14.591Z,15.90
2019-05-22T10:25:35.512Z,17.32
2019-05-22T10:28:06.709Z,11.60
2019-05-22T10:30:35.876Z,14.25
2019-05-22T10:33:04.639Z,10.28
2019-05-22T10:35:34.710Z,14.55
2019-05-22T10:38:03.492Z,22.37
2019-05-22T10:40:32.604Z,12.13
2019-05-22T10:43:02.112Z,11.53
2019-05-22T10:45:30.944Z,15.85
2019-05-22T10:47:59.646Z,16.05
2019-05-22T10:50:28.520Z,20.32
2019-05-22T10:52:57.419Z,17.57
2019-05-22T10:55:27.128Z,14.15
2019-05-22T10:57:55.886Z,15.70
2019-05-22T11:00:24.955Z,15.18
2019-05-22T11:02:53.939Z,12.70
2019-05-22T11:05:23.384Z,13.70
2019-05-22T11:07:52.333Z,10.65
2019-05-22T11:10:24.376Z,13.60
2019-05-22T11:12:53.644Z,16.82
2019-05-22T11:15:23.716Z,11.93
2019-05-22T11:17:53.006Z,9.73
2019-05-22T11:20:22.678Z,11.22
2019-05-22T11:22:51.581Z,11.80
2019-05-22T11:25:22.353Z,9.80
2019-05-22T11:27:52.728Z,8.38
2019-05-22T11:30:22.015Z,13.65
2019-05-22T11:32:51.066Z,19.27
2019-05-22T11:35:20.738Z,14.18
2019-05-22T11:37:49.443Z,14.18
2019-05-22T11:40:19.548Z,13.78
2019-05-22T11:42:50.216Z,13.80
2019-05-22T11:45:20.121Z,11.83
2019-05-22T11:47:49.317Z,12.10
2019-05-22T11:50:18.223Z,10.13
2019-05-22T11:52:47.620Z,8.50
2019-05-22T11:55:17.496Z,20.70
2019-05-22T11:57:47.975Z,12.80
2019-05-22T12:00:18.657Z,11.12
2019-05-22T12:02:47.923Z,11.05
2019-05-22T12:05:17.218Z,18.73
2019-05-22T12:07:46.879Z,11.53
2019-05-22T12:10:17.379Z,11.65
2019-05-22T12:12:47.559Z,11.38
2019-05-22T12:15:18.437Z,10.53
2019-05-22T12:17:47.211Z,16.52
2019-05-22T12:20:16.696Z,10.43
2019-05-22T12:22:45.396Z,12.28
2019-05-22T12:25:14.991Z,8.53
2019-05-22T12:27:43.708Z,12.13
2019-05-22T12:30:14.561Z,18.67
2019-05-22T12:32:43.513Z,18.32
2019-05-22T12:35:15.489Z,10.35
2019-05-22T12:37:45.144Z,9.35
2019-05-22T12:40:17.356Z,13.03
2019-05-22T12:42:46.755Z,14.43
2019-05-22T12:45:17.036Z,11.80
2019-05-22T12:47:46.424Z,9.95
2019-05-22T12:50:18.970Z,13.98
2019-05-22T12:52:49.741Z,11.40
2019-05-22T12:55:20.519Z,11.35
2019-05-22T12:57:50.792Z,14.18
2019-05-22T13:00:23.934Z,10.48
2019-05-22T13:02:55.081Z,16.45
2019-05-22T13:05:24.555Z,8.58
2019-05-22T13:07:54.028Z,8.95
2019-05-22T13:10:23.558Z,10.82
2019-05-22T13:12:53.363Z,11.38
2019-05-22T13:15:25.023Z,13.05
2019-05-22T13:17:54.920Z,15.65
2019-05-22T13:20:41.121Z,8.98
2019-05-22T13:22:58.602Z,14.05
2019-05-22T13:25:31.433Z,13.48
2019-05-22T13:28:01.638Z,9.53
2019-05-22T13:30:31.480Z,14.55
2019-05-22T13:33:00.893Z,11.48
2019-05-22T13:35:30.880Z,9.50
2019-05-22T13:38:00.557Z,8.40
2019-05-22T13:40:30.324Z,9.25
2019-05-22T13:42:59.616Z,11.97
2019-05-22T13:45:30.287Z,14.00
2019-05-22T13:47:59.297Z,16.12
2019-05-22T13:50:29.168Z,14.43
2019-05-22T13:53:00.492Z,11.28
2019-05-22T13:55:29.975Z,9.50
2019-05-22T13:57:59.837Z,7.65
2019-05-22T14:00:28.797Z,15.72
2019-05-22T14:02:57.978Z,11.88
2019-05-22T14:05:28.350Z,14.75
2019-05-22T14:07:57.055Z,9.45
2019-05-22T14:10:28.040Z,11.60
2019-05-22T14:12:57.166Z,12.23
2019-05-22T14:15:26.353Z,8.93
2019-05-22T14:17:55.345Z,8.90
2019-05-22T14:20:24.450Z,11.05
2019-05-22T14:22:53.344Z,14.73
2019-05-22T14:25:24.385Z,9.78
2019-05-22T14:27:53.275Z,9.98
2019-05-22T14:30:24.653Z,10.68
2019-05-22T14:32:53.729Z,11.10
2019-05-22T14:35:25.703Z,11.43
2019-05-22T14:37:54.706Z,9.70
2019-05-22T14:40:24.612Z,8.00
2019-05-22T14:42:53.407Z,11.03
2019-05-22T14:45:23.755Z,11.75
2019-05-22T14:47:52.733Z,11.50
2019-05-22T14:50:23.642Z,6.47
2019-05-22T14:52:52.835Z,10.95
2019-05-22T14:55:22.365Z,14.25
2019-05-22T14:57:51.896Z,9.33
2019-05-22T15:00:22.731Z,10.23
2019-05-22T15:02:56.944Z,12.70
2019-05-22T15:05:23.550Z,11.30
2019-05-22T15:07:52.877Z,11.75
2019-05-22T15:10:23.048Z,9.55
2019-05-22T15:12:51.753Z,11.43
2019-05-22T15:15:21.230Z,10.13
2019-05-22T15:17:50.240Z,16.02
2019-05-22T15:20:24.088Z,14.65
2019-05-22T15:22:55.962Z,16.00
2019-05-22T15:25:23.511Z,9.30
2019-05-22T15:27:52.780Z,12.45
2019-05-22T15:30:21.871Z,10.68
2019-05-22T15:32:50.773Z,7.85
2019-05-22T15:35:19.902Z,13.13
2019-05-22T15:37:49.347Z,10.95
2019-05-22T15:40:20.120Z,9.08
2019-05-22T15:42:49.276Z,15.10
2019-05-22T15:45:24.357Z,7.62
2019-05-22T15:47:57.056Z,8.10
2019-05-22T15:50:32.296Z,6.90
2019-05-22T15:53:06.804Z,12.18
2019-05-22T15:55:38.179Z,6.42
2019-05-22T15:58:08.250Z,4.70
2019-05-22T16:00:38.937Z,6.65
2019-05-22T16:03:10.917Z,9.70
2019-05-22T16:05:42.077Z,7.30
2019-05-22T16:08:11.271Z,6.42
2019-05-22T16:10:43.294Z,10.13
2019-05-22T16:13:15.742Z,4.30
2019-05-22T16:15:46.871Z,5.03
2019-05-22T16:18:18.847Z,4.78
2019-05-22T16:20:48.721Z,4.85
2019-05-22T16:23:21.208Z,3.62
2019-05-22T16:25:49.028Z,5.12
2019-05-22T16:28:18.799Z,6.97
2019-05-22T16:30:47.958Z,7.87
2019-05-22T16:33:16.823Z,6.75
2019-05-22T16:35:45.640Z,5.87
2019-05-22T16:38:14.809Z,9.58
2019-05-22T16:40:44.474Z,8.40
2019-05-22T16:43:14.232Z,7.67
2019-05-22T16:45:43.411Z,11.05
2019-05-22T16:48:27.661Z,7.97
2019-05-22T16:50:45.262Z,8.55
2019-05-22T16:53:14.780Z,9.60
2019-05-22T16:55:44.107Z,12.30
2019-05-22T16:58:13.428Z,8.75
2019-05-22T17:00:44.204Z,10.98
2019-05-22T17:03:15.231Z,6.62
2019-05-22T17:05:44.609Z,13.93
2019-05-22T17:08:14.581Z,10.63
2019-05-22T17:10:43.595Z,8.70
2019-05-22T17:13:14.423Z,7.35
2019-05-22T17:15:43.892Z,8.48
2019-05-22T17:18:15.369Z,17.55
2019-05-22T17:20:44.943Z,25.85
2019-05-22T17:23:13.647Z,10.50
2019-05-22T17:25:43.724Z,9.38
2019-05-22T17:28:12.585Z,7.80
2019-05-22T17:30:42.256Z,9.83
2019-05-22T17:33:11.920Z,13.95
2019-05-22T17:35:42.056Z,6.90
2019-05-22T17:38:11.045Z,7.75
2019-05-22T17:40:40.915Z,8.45
2019-05-22T17:43:10.916Z,8.95
2019-05-22T17:45:43.030Z,9.18
2019-05-22T17:48:13.660Z,11.40
2019-05-22T17:50:43.930Z,9.30
2019-05-22T17:53:13.281Z,7.03
2019-05-22T17:55:42.338Z,8.48
2019-05-22T17:58:12.198Z,6.15
2019-05-22T18:00:43.050Z,7.78
2019-05-22T18:03:12.313Z,7.40
2019-05-22T18:05:41.988Z,9.80
2019-05-22T18:08:11.566Z,6.87
2019-05-22T18:10:43.065Z,7.25
2019-05-22T18:13:12.831Z,9.35
2019-05-22T18:15:41.913Z,13.18
2019-05-22T18:18:11.180Z,8.83
2019-05-22T18:20:43.589Z,8.50
2019-05-22T18:23:10.431Z,13.28
2019-05-22T18:25:39.129Z,10.80
2019-05-22T18:28:08.372Z,15.38
2019-05-22T18:30:38.755Z,17.90
2019-05-22T18:33:07.974Z,12.30
2019-05-22T18:35:36.653Z,14.43
2019-05-22T18:38:05.401Z,21.07
2019-05-22T18:40:34.068Z,14.18
2019-05-22T18:43:02.916Z,13.32
2019-05-22T18:45:33.383Z,16.52
2019-05-22T18:48:02.202Z,13.75
2019-05-22T18:50:31.855Z,12.07
2019-05-22T18:53:00.552Z,9.00
2019-05-22T18:55:29.256Z,11.53
2019-05-22T18:57:58.081Z,9.55
2019-05-22T19:00:28.940Z,8.63
2019-05-22T19:02:58.141Z,11.18
2019-05-22T19:05:30.055Z,11.33
2019-05-22T19:07:58.951Z,10.30
2019-05-22T19:10:28.137Z,11.18
2019-05-22T19:12:57.819Z,14.73
2019-05-22T19:15:26.693Z,10.35
2019-05-22T19:17:55.392Z,9.23
2019-05-22T19:20:24.294Z,13.83
2019-05-22T19:22:59.880Z,10.30
2019-05-22T19:25:24.454Z,21.77
2019-05-22T19:27:53.147Z,17.60
2019-05-22T19:30:23.395Z,13.10
2019-05-22T19:32:52.560Z,13.03
2019-05-22T19:35:21.460Z,12.98
2019-05-22T19:37:50.229Z,11.03
2019-05-22T19:40:19.409Z,13.28
2019-05-22T19:42:48.779Z,15.68
2019-05-22T19:45:19.085Z,18.42
2019-05-22T19:47:53.078Z,15.90
2019-05-22T19:50:23.857Z,19.00
2019-05-22T19:52:53.478Z,16.95
2019-05-22T19:55:23.779Z,19.50
2019-05-22T19:57:52.583Z,19.98
2019-05-22T20:00:22.324Z,16.95
2019-05-22T20:02:51.241Z,15.93
2019-05-22T20:05:21.700Z,13.47
2019-05-22T20:07:50.843Z,15.23
2019-05-22T20:10:19.643Z,18.87
2019-05-22T20:12:48.923Z,20.27
2019-05-22T20:15:19.128Z,16.48
2019-05-22T20:17:47.824Z,14.93
2019-05-22T20:20:17.423Z,13.88
2019-05-22T20:22:46.236Z,15.70
2019-05-22T20:25:16.321Z,19.77
2019-05-22T20:27:46.006Z,16.07
2019-05-22T20:30:15.793Z,18.23
2019-05-22T20:32:45.163Z,18.10
2019-05-22T20:35:14.635Z,13.65
2019-05-22T20:37:45.307Z,16.37
2019-05-22T20:40:14.645Z,15.00
2019-05-22T20:42:44.199Z,16.57
2019-05-22T20:45:14.071Z,13.32
2019-05-22T20:47:45.939Z,14.20
2019-05-22T20:50:15.834Z,15.05
2019-05-22T20:52:45.596Z,11.93
2019-05-22T20:55:14.870Z,13.65
2019-05-22T20:57:44.172Z,14.98
2019-05-22T21:00:16.075Z,16.02
2019-05-22T21:02:46.601Z,17.17
2019-05-22T21:05:18.252Z,18.57
2019-05-22T21:07:51.014Z,12.90
2019-05-22T21:10:23.510Z,19.02
2019-05-22T21:12:53.499Z,14.63
2019-05-22T21:15:22.287Z,15.10
2019-05-22T21:17:52.411Z,15.25
2019-05-22T21:20:22.847Z,14.87
2019-05-22T21:22:52.110Z,14.87
2019-05-22T21:25:21.784Z,17.37
2019-05-22T21:27:50.712Z,11.83
2019-05-22T21:30:20.812Z,16.13
2019-05-22T21:32:50.081Z,12.85
2019-05-22T21:35:19.782Z,15.18
2019-05-22T21:37:48.751Z,16.42
2019-05-22T21:40:21.358Z,18.50
2019-05-22T21:42:51.278Z,16.17
2019-05-22T21:45:20.743Z,13.53
2019-05-22T21:47:49.507Z,14.38
2019-05-22T21:50:19.480Z,12.93
2019-05-22T21:52:48.371Z,16.00
2019-05-22T21:55:18.248Z,15.10
2019-05-22T21:57:47.670Z,15.50
2019-05-22T22:00:35.918Z,15.93
2019-05-22T22:03:07.259Z,13.75
2019-05-22T22:05:36.559Z,17.95
2019-05-22T22:08:05.711Z,15.95
2019-05-22T22:10:34.519Z,13.83
2019-05-22T22:13:07.565Z,13.53
2019-05-22T22:15:35.759Z,15.38
2019-05-22T22:18:06.135Z,14.35
2019-05-22T22:20:35.235Z,13.48
2019-05-22T22:23:05.010Z,12.95
2019-05-22T22:25:34.039Z,16.30
2019-05-22T22:28:03.472Z,10.38
2019-05-22T22:30:50.454Z,14.53
2019-05-22T22:33:23.715Z,13.05
2019-05-22T22:35:53.884Z,11.57
2019-05-22T22:38:24.966Z,13.00
2019-05-22T22:40:55.562Z,14.78
2019-05-22T22:43:28.072Z,12.98
2019-05-22T22:46:01.110Z,12.73
2019-05-22T22:48:33.071Z,17.43
2019-05-22T22:51:05.971Z,11.27
2019-05-22T22:53:35.016Z,14.63
2019-05-22T22:56:06.089Z,18.60
2019-05-22T22:58:35.551Z,17.55
2019-05-22T23:01:07.576Z,17.62
2019-05-22T23:03:37.455Z,22.23
2019-05-22T23:06:09.451Z,20.82
2019-05-22T23:08:39.747Z,22.17
2019-05-22T23:11:10.899Z,24.20
2019-05-22T23:13:40.778Z,25.27
2019-05-22T23:16:11.643Z,27.07
2019-05-22T23:18:46.912Z,29.92
2019-05-22T23:21:16.047Z,30.65
2019-05-22T23:23:44.387Z,21.52
2019-05-22T23:26:14.363Z,18.43
2019-05-22T23:28:43.857Z,22.52
2019-05-22T23:31:13.019Z,18.10
2019-05-22T23:33:42.988Z,18.42
2019-05-22T23:36:13.569Z,16.97
2019-05-22T23:38:43.034Z,18.73
2019-05-22T23:41:13.905Z,16.50
2019-05-22T23:43:44.671Z,18.23
2019-05-22T23:46:14.748Z,20.25
2019-05-22T23:48:43.960Z,21.50
2019-05-22T23:51:12.729Z,18.10
2019-05-22T23:53:42.123Z,22.87
2019-05-22T23:56:11.907Z,16.90
2019-05-22T23:58:59.868Z,16.53
